Eight Mile, Alabama
Current Conditions -  °F | °C
As of 1:56 AM on Tuesday 21 Oct 2014 (Local Time) from KMOB Reporting Station
Clear Clear  
Wind Chill: 53°   Ceiling: Unl
Heat Index: 53°   Visibility: 10mi
Dew Point: 52°   Wind: 3mph
Humidity: 96%   Direction: 350°N
Pressure: 30.02"   Gusts: NA
Location:  30.76°N, 88.13°W
Report Text: KMOB 210656Z AUTO 35003KT 10SM CLR 12/11 A3002 RMK AO2 SLP161 T01170111
Loading
Personal Weather Stations






























Interactive Weather Map New forecast layout! Learn more

10-Day Weather Forecast

Advertisements
Track Severe Weather on mobile